Time;durP1;ratioP1;P1;durP2;ratioP2;P2;SDS_P1;SDS_P2;PMS_P1;PMS_P2;Temp;Humidity;BMP_temperature;BMP_pressure;BME280_temperature;BME280_humidity;BME280_pressure;Samples;Min_cycle;Max_cycle;Signal;HPM_P1;HPM_P2
2024/03/29 00:01:16;;;;;;;;;;;8.10;99.90;;;;;;5070907;28;19915;-74
2024/03/29 00:03:42;;;;;;;;;;;8.10;99.90;;;;;;5070783;28;19912;-74
2024/03/29 00:06:08;;;;;;;;;;;8.00;99.90;;;;;;5052885;28;19909;-74
2024/03/29 00:08:33;;;;;;;;;;;7.90;99.90;;;;;;5052868;28;19911;-74
2024/03/29 00:10:59;;;;;;;;;;;7.80;99.90;;;;;;5070989;28;19908;-73
2024/03/29 00:13:25;;;;;;;;;;;7.80;99.90;;;;;;5070719;28;20289;-72
2024/03/29 00:15:50;;;;;;;;;;;7.70;99.90;;;;;;5052834;28;20377;-74
2024/03/29 00:18:16;;;;;;;;;;;7.60;99.90;;;;;;5071113;28;20381;-74
2024/03/29 00:20:41;;;;;;;;;;;7.60;99.90;;;;;;5053551;28;19908;-74
2024/03/29 00:23:07;;;;;;;;;;;7.60;99.90;;;;;;5071389;28;20366;-74
2024/03/29 00:25:32;;;;;;;;;;;7.50;99.90;;;;;;5053339;28;20368;-74
2024/03/29 00:27:58;;;;;;;;;;;7.50;99.90;;;;;;5071232;28;19904;-74
2024/03/29 00:30:23;;;;;;;;;;;7.50;99.90;;;;;;5071824;28;19905;-75
2024/03/29 00:32:49;;;;;;;;;;;7.50;99.90;;;;;;5057800;28;19936;-74
2024/03/29 00:35:15;;;;;;;;;;;7.50;99.90;;;;;;5077385;28;19908;-74
2024/03/29 00:37:40;;;;;;;;;;;7.40;99.90;;;;;;5055787;28;19911;-72
2024/03/29 00:40:06;;;;;;;;;;;7.20;99.90;;;;;;5070901;28;19920;-75
2024/03/29 00:42:32;;;;;;;;;;;7.20;99.90;;;;;;5052457;28;19966;-74
2024/03/29 00:44:57;;;;;;;;;;;7.40;99.90;;;;;;5052324;28;20397;-73
2024/03/29 00:47:23;;;;;;;;;;;7.50;99.90;;;;;;5070152;28;20300;-74
2024/03/29 00:49:48;;;;;;;;;;;7.60;99.90;;;;;;5070143;28;19904;-74
2024/03/29 00:52:14;;;;;;;;;;;7.70;99.90;;;;;;5070206;28;19908;-74
2024/03/29 00:54:39;;;;;;;;;;;7.80;99.90;;;;;;5052692;28;19930;-74
2024/03/29 00:57:06;;;;;;;;;;;7.90;99.90;;;;;;5052146;28;19914;-74
2024/03/29 00:59:32;;;;;;;;;;;8.10;99.90;;;;;;5069858;28;19911;-74
2024/03/29 01:01:57;;;;;;;;;;;8.10;99.90;;;;;;5052405;28;20347;-73
2024/03/29 01:04:23;;;;;;;;;;;8.10;99.90;;;;;;5052712;28;19912;-74
2024/03/29 01:06:48;;;;;;;;;;;8.20;99.90;;;;;;5051849;28;20269;-74
2024/03/29 01:09:14;;;;;;;;;;;8.10;99.90;;;;;;5070176;28;19905;-75
2024/03/29 01:11:40;;;;;;;;;;;8.00;99.90;;;;;;5070034;28;19908;-74
2024/03/29 01:14:06;;;;;;;;;;;8.00;99.90;;;;;;5069864;28;20258;-71
2024/03/29 01:16:31;;;;;;;;;;;7.90;99.90;;;;;;5069865;28;19965;-74
2024/03/29 01:18:57;;;;;;;;;;;7.90;99.90;;;;;;5052620;28;20369;-74
2024/03/29 01:21:23;;;;;;;;;;;7.90;99.90;;;;;;5069989;28;19912;-74
2024/03/29 01:23:49;;;;;;;;;;;7.90;99.90;;;;;;5074069;28;19911;-74
2024/03/29 01:26:17;;;;;;;;;;;8.00;99.90;;;;;;5075674;28;20331;-74
2024/03/29 01:28:43;;;;;;;;;;;8.10;99.90;;;;;;5072708;28;20407;-73
2024/03/29 01:31:08;;;;;;;;;;;8.30;99.90;;;;;;5073575;28;20008;-75
2024/03/29 01:33:37;;;;;;;;;;;8.40;99.90;;;;;;5058846;28;19943;-75
2024/03/29 01:36:03;;;;;;;;;;;8.50;99.90;;;;;;5075607;28;19908;-78
2024/03/29 01:38:29;;;;;;;;;;;8.50;99.90;;;;;;5070269;28;19915;-75
2024/03/29 01:40:54;;;;;;;;;;;8.40;99.90;;;;;;5070102;28;19908;-74
2024/03/29 01:43:20;;;;;;;;;;;8.30;99.90;;;;;;5051746;28;19923;-74
2024/03/29 01:45:47;;;;;;;;;;;8.30;99.90;;;;;;5051864;28;19924;-74
2024/03/29 01:48:13;;;;;;;;;;;8.30;99.90;;;;;;5055955;28;19909;-75
2024/03/29 01:50:39;;;;;;;;;;;8.20;99.90;;;;;;5074638;28;19974;-71
2024/03/29 01:53:07;;;;;;;;;;;8.10;99.90;;;;;;5073242;28;20356;-72
2024/03/29 01:55:33;;;;;;;;;;;8.00;99.90;;;;;;5073307;28;19952;-71
2024/03/29 01:57:58;;;;;;;;;;;7.80;99.90;;;;;;5072974;28;20392;-73
2024/03/29 02:00:24;;;;;;;;;;;7.70;99.90;;;;;;5055804;28;20219;-72
2024/03/29 02:02:51;;;;;;;;;;;7.70;99.90;;;;;;5054959;28;20273;-72
2024/03/29 02:05:16;;;;;;;;;;;7.60;99.90;;;;;;5073152;28;19908;-72
2024/03/29 02:07:45;;;;;;;;;;;7.50;99.90;;;;;;5073050;28;19911;-72
2024/03/29 02:10:12;;;;;;;;;;;7.40;99.90;;;;;;5072965;28;19912;-73
2024/03/29 02:12:38;;;;;;;;;;;7.40;99.90;;;;;;5054822;28;19914;-72
2024/03/29 02:15:04;;;;;;;;;;;7.40;99.90;;;;;;5054866;28;19904;-72
2024/03/29 02:17:30;;;;;;;;;;;7.40;99.90;;;;;;5072666;28;19915;-72
2024/03/29 02:19:55;;;;;;;;;;;7.30;99.90;;;;;;5072893;28;19915;-72
2024/03/29 02:22:21;;;;;;;;;;;7.30;99.90;;;;;;5054720;28;19912;-69
2024/03/29 02:24:47;;;;;;;;;;;7.40;99.90;;;;;;5054881;28;20426;-74
2024/03/29 02:27:13;;;;;;;;;;;7.30;99.90;;;;;;5072844;28;19912;-74
2024/03/29 02:29:39;;;;;;;;;;;7.30;99.90;;;;;;5072711;28;19908;-74
2024/03/29 02:32:04;;;;;;;;;;;7.30;99.90;;;;;;5072814;28;20276;-75
2024/03/29 02:34:30;;;;;;;;;;;7.30;99.90;;;;;;5072495;28;19912;-75
2024/03/29 02:36:57;;;;;;;;;;;7.30;99.90;;;;;;5072559;28;19946;-74
2024/03/29 02:39:22;;;;;;;;;;;7.30;99.90;;;;;;5072428;28;20377;-74
2024/03/29 02:41:48;;;;;;;;;;;7.30;99.90;;;;;;5054599;28;19912;-73
2024/03/29 02:44:15;;;;;;;;;;;7.20;99.90;;;;;;5072407;28;19931;-72
2024/03/29 02:46:41;;;;;;;;;;;7.20;99.90;;;;;;5072475;28;19991;-72
2024/03/29 02:49:07;;;;;;;;;;;7.20;99.90;;;;;;5054431;28;19948;-72
2024/03/29 02:51:33;;;;;;;;;;;7.10;99.90;;;;;;5054493;28;19963;-74
2024/03/29 02:53:58;;;;;;;;;;;7.00;99.90;;;;;;5071941;28;20011;-74
2024/03/29 02:56:24;;;;;;;;;;;7.00;99.90;;;;;;5072203;28;19958;-74
2024/03/29 02:58:49;;;;;;;;;;;7.00;99.90;;;;;;5071378;28;19935;-74
2024/03/29 03:01:15;;;;;;;;;;;7.00;99.90;;;;;;5054385;28;20490;-74
2024/03/29 03:03:40;;;;;;;;;;;7.10;99.90;;;;;;5072164;28;20472;-74
2024/03/29 03:06:06;;;;;;;;;;;7.10;99.90;;;;;;5054357;28;19908;-75
2024/03/29 03:11:15;;;;;;;;;;;7.10;99.90;;;;;;5072524;28;19911;-74
2024/03/29 03:13:41;;;;;;;;;;;7.00;99.90;;;;;;5072451;28;20003;-74
2024/03/29 03:16:07;;;;;;;;;;;6.90;99.90;;;;;;5072284;28;19927;-74
2024/03/29 03:18:32;;;;;;;;;;;6.70;99.90;;;;;;5071974;28;19923;-75
2024/03/29 03:20:58;;;;;;;;;;;6.70;99.90;;;;;;5071754;28;19915;-74
2024/03/29 03:23:23;;;;;;;;;;;6.60;99.90;;;;;;5072092;28;19916;-74
2024/03/29 03:25:56;;;;;;;;;;;6.60;99.90;;;;;;5072507;28;19904;-73
2024/03/29 03:28:21;;;;;;;;;;;6.50;99.90;;;;;;5061070;28;19934;-74
2024/03/29 03:30:51;;;;;;;;;;;6.50;99.90;;;;;;5079711;28;19908;-74
2024/03/29 03:33:16;;;;;;;;;;;6.40;99.90;;;;;;5054699;28;20099;-74
2024/03/29 03:35:42;;;;;;;;;;;6.30;99.90;;;;;;5054532;28;20380;-74
2024/03/29 03:38:08;;;;;;;;;;;6.30;99.90;;;;;;5053542;28;20365;-72
2024/03/29 03:40:34;;;;;;;;;;;6.20;99.90;;;;;;5053746;28;19916;-74
2024/03/29 03:42:59;;;;;;;;;;;6.10;99.90;;;;;;5053578;28;19912;-75
2024/03/29 03:45:25;;;;;;;;;;;6.00;99.90;;;;;;5071529;28;20297;-74
2024/03/29 03:47:50;;;;;;;;;;;5.90;99.90;;;;;;5071482;28;19909;-74
2024/03/29 03:50:16;;;;;;;;;;;5.80;99.90;;;;;;5071484;28;19911;-75
2024/03/29 03:52:41;;;;;;;;;;;5.80;99.90;;;;;;5053352;28;19911;-74
2024/03/29 03:55:07;;;;;;;;;;;5.70;99.90;;;;;;5071199;28;20396;-75
2024/03/29 03:57:33;;;;;;;;;;;5.70;99.90;;;;;;5071207;28;19905;-74
2024/03/29 03:59:59;;;;;;;;;;;5.60;99.90;;;;;;5071462;28;19927;-74
2024/03/29 04:02:25;;;;;;;;;;;5.50;99.90;;;;;;5053088;28;20320;-75
2024/03/29 04:04:50;;;;;;;;;;;5.50;99.90;;;;;;5053557;28;19991;-74
2024/03/29 04:07:16;;;;;;;;;;;5.40;99.90;;;;;;5053295;28;20281;-73
2024/03/29 04:09:42;;;;;;;;;;;5.30;99.90;;;;;;5054790;28;19904;-74
2024/03/29 04:12:07;;;;;;;;;;;5.30;99.90;;;;;;5071397;28;19904;-74
2024/03/29 04:14:33;;;;;;;;;;;5.20;99.90;;;;;;5053433;28;19959;-75
2024/03/29 04:16:58;;;;;;;;;;;5.20;99.90;;;;;;5071201;28;19919;-74
2024/03/29 04:19:24;;;;;;;;;;;5.20;99.90;;;;;;5052771;28;19904;-73
2024/03/29 04:21:49;;;;;;;;;;;5.10;99.90;;;;;;5070611;28;19968;-73
2024/03/29 04:24:15;;;;;;;;;;;5.10;99.90;;;;;;5053051;28;19999;-75
2024/03/29 04:26:40;;;;;;;;;;;5.20;99.90;;;;;;5052922;28;19951;-73
2024/03/29 04:29:06;;;;;;;;;;;5.20;99.90;;;;;;5053094;28;19948;-74
2024/03/29 04:31:31;;;;;;;;;;;5.20;99.90;;;;;;5053006;28;20324;-74
2024/03/29 04:33:57;;;;;;;;;;;5.20;99.90;;;;;;5070674;28;20372;-74
2024/03/29 04:36:22;;;;;;;;;;;5.20;99.90;;;;;;5052387;28;19908;-74
2024/03/29 04:38:48;;;;;;;;;;;5.30;99.90;;;;;;5065181;28;19969;-74
2024/03/29 04:41:13;;;;;;;;;;;5.30;99.90;;;;;;5089150;28;19908;-74
2024/03/29 04:43:40;;;;;;;;;;;5.30;99.90;;;;;;5089412;28;20516;-73
2024/03/29 04:46:10;;;;;;;;;;;5.30;99.90;;;;;;5089317;28;19904;-74
2024/03/29 04:48:36;;;;;;;;;;;5.30;99.90;;;;;;5090585;28;19904;-73
2024/03/29 04:51:01;;;;;;;;;;;5.40;99.90;;;;;;5090707;28;19971;-72
2024/03/29 04:53:27;;;;;;;;;;;5.40;99.90;;;;;;5090374;28;19983;-74
2024/03/29 04:55:53;;;;;;;;;;;5.40;99.90;;;;;;5090737;28;19933;-74
2024/03/29 04:58:19;;;;;;;;;;;5.40;99.90;;;;;;5089399;28;19965;-74
2024/03/29 05:00:44;;;;;;;;;;;5.50;99.90;;;;;;5096142;28;20368;-74
2024/03/29 05:03:10;;;;;;;;;;;6.00;99.90;;;;;;5096781;28;20506;-73
2024/03/29 05:05:35;;;;;;;;;;;6.60;99.90;;;;;;5084537;28;19990;-72
2024/03/29 05:08:01;;;;;;;;;;;6.90;99.90;;;;;;5096061;28;20382;-74
2024/03/29 05:10:26;;;;;;;;;;;7.00;99.90;;;;;;5096353;28;20364;-75
2024/03/29 05:12:53;;;;;;;;;;;7.00;99.90;;;;;;5095031;28;19904;-74
2024/03/29 05:15:19;;;;;;;;;;;6.90;99.90;;;;;;5090532;28;19903;-75
2024/03/29 05:17:44;;;;;;;;;;;6.90;99.90;;;;;;5089251;28;19999;-74
2024/03/29 05:20:10;;;;;;;;;;;6.90;99.90;;;;;;5088770;28;20003;-74
2024/03/29 05:22:36;;;;;;;;;;;6.80;99.90;;;;;;5093526;28;20369;-74
2024/03/29 05:25:01;;;;;;;;;;;6.90;99.90;;;;;;5094366;28;19904;-74
2024/03/29 05:27:27;;;;;;;;;;;6.90;99.90;;;;;;5094208;28;19940;-74
2024/03/29 05:29:52;;;;;;;;;;;7.10;99.90;;;;;;5093188;28;19904;-71
2024/03/29 05:32:18;;;;;;;;;;;7.40;99.90;;;;;;5092480;28;19949;-72
2024/03/29 05:34:44;;;;;;;;;;;8.20;99.90;;;;;;5092673;28;19951;-74
2024/03/29 05:37:09;;;;;;;;;;;9.50;99.90;;;;;;5092472;28;19907;-75
2024/03/29 05:39:35;;;;;;;;;;;10.60;99.90;;;;;;5092220;28;19920;-74
2024/03/29 05:42:00;;;;;;;;;;;11.70;99.90;;;;;;5093611;28;19912;-74
2024/03/29 05:44:26;;;;;;;;;;;12.80;99.90;;;;;;5092140;28;20003;-73
2024/03/29 05:46:52;;;;;;;;;;;13.80;93.70;;;;;;5093334;28;19915;-72
2024/03/29 05:49:17;;;;;;;;;;;14.60;83.10;;;;;;5093639;28;20379;-72
2024/03/29 05:51:43;;;;;;;;;;;15.10;73.20;;;;;;5092436;28;20421;-72
2024/03/29 05:54:09;;;;;;;;;;;15.50;71.80;;;;;;5092332;28;20380;-72
2024/03/29 05:56:34;;;;;;;;;;;15.70;69.60;;;;;;5092235;28;19962;-72
2024/03/29 05:59:00;;;;;;;;;;;15.80;67.00;;;;;;5093183;28;19923;-72
2024/03/29 06:01:26;;;;;;;;;;;15.90;66.00;;;;;;5091830;28;19908;-73
2024/03/29 06:03:52;;;;;;;;;;;16.00;65.40;;;;;;5093061;28;19916;-73
2024/03/29 06:06:22;;;;;;;;;;;16.00;62.80;;;;;;5093208;28;19908;-71
2024/03/29 06:08:47;;;;;;;;;;;15.70;63.40;;;;;;5092044;28;20006;-72
2024/03/29 06:11:13;;;;;;;;;;;15.60;63.20;;;;;;5093432;28;20002;-72
2024/03/29 06:19:04;;;;;;;;;;;15.50;64.20;;;;;;5093393;28;19919;-72
2024/03/29 06:21:32;;;;;;;;;;;15.50;66.50;;;;;;5091568;28;19908;-73
2024/03/29 06:23:58;;;;;;;;;;;15.70;65.50;;;;;;5091513;28;19911;-73
2024/03/29 06:26:23;;;;;;;;;;;15.90;64.00;;;;;;5093117;28;20242;-73
2024/03/29 06:28:49;;;;;;;;;;;16.10;62.00;;;;;;5092893;28;19908;-74
2024/03/29 06:31:14;;;;;;;;;;;16.20;60.40;;;;;;5092607;28;20006;-76
2024/03/29 06:33:40;;;;;;;;;;;16.40;61.10;;;;;;5092672;28;19919;-74
2024/03/29 06:36:06;;;;;;;;;;;16.60;61.50;;;;;;5091154;28;19908;-75
2024/03/29 06:38:32;;;;;;;;;;;17.00;56.90;;;;;;5091182;28;19964;-74
2024/03/29 06:40:57;;;;;;;;;;;17.20;56.70;;;;;;5091283;28;19908;-75
2024/03/29 06:43:23;;;;;;;;;;;17.40;55.90;;;;;;5092471;28;19916;-74
2024/03/29 06:45:48;;;;;;;;;;;17.60;54.20;;;;;;5091460;28;20052;-72
2024/03/29 06:48:14;;;;;;;;;;;17.80;54.00;;;;;;5092442;28;20002;-72
2024/03/29 06:50:41;;;;;;;;;;;18.10;52.80;;;;;;5092251;28;20737;-73
2024/03/29 06:53:08;;;;;;;;;;;18.30;52.30;;;;;;5091160;28;19919;-72
2024/03/29 06:55:36;;;;;;;;;;;18.40;50.70;;;;;;5092271;28;19918;-73
2024/03/29 06:58:02;;;;;;;;;;;18.50;51.30;;;;;;5092258;28;19943;-72
2024/03/29 07:00:28;;;;;;;;;;;18.70;50.30;;;;;;5092959;28;20017;-72
2024/03/29 07:02:53;;;;;;;;;;;19.10;49.20;;;;;;5090650;28;19916;-72
2024/03/29 07:05:19;;;;;;;;;;;19.40;48.90;;;;;;5092032;28;20342;-72
2024/03/29 07:07:47;;;;;;;;;;;19.70;46.40;;;;;;5092133;28;19911;-72
2024/03/29 07:10:12;;;;;;;;;;;19.90;45.20;;;;;;5090626;28;19904;-75
2024/03/29 07:12:38;;;;;;;;;;;20.00;45.00;;;;;;5091696;28;20472;-74
2024/03/29 07:15:04;;;;;;;;;;;20.20;43.00;;;;;;5086254;28;20319;-74
2024/03/29 07:17:29;;;;;;;;;;;20.30;41.90;;;;;;5091729;28;20174;-74
2024/03/29 07:19:55;;;;;;;;;;;20.50;40.30;;;;;;5091826;28;19939;-74
2024/03/29 07:22:20;;;;;;;;;;;20.60;42.00;;;;;;5091153;28;19971;-75
2024/03/29 07:24:46;;;;;;;;;;;20.80;41.10;;;;;;5091455;28;19904;-74
2024/03/29 07:27:13;;;;;;;;;;;21.10;39.00;;;;;;5090517;28;19930;-75
2024/03/29 07:29:39;;;;;;;;;;;21.80;36.30;;;;;;5091865;28;19908;-75
2024/03/29 07:32:05;;;;;;;;;;;22.00;36.00;;;;;;5091502;28;20417;-74
2024/03/29 07:34:30;;;;;;;;;;;21.50;37.50;;;;;;5091621;28;19916;-75
2024/03/29 07:36:56;;;;;;;;;;;21.60;37.60;;;;;;5091242;28;19908;-75
2024/03/29 07:39:22;;;;;;;;;;;21.30;39.00;;;;;;5090051;28;19920;-75
2024/03/29 07:41:48;;;;;;;;;;;21.60;37.80;;;;;;5089972;28;19912;-75
2024/03/29 07:44:13;;;;;;;;;;;22.00;37.10;;;;;;5089515;28;20003;-75
2024/03/29 07:46:40;;;;;;;;;;;22.20;35.50;;;;;;5090008;28;19947;-72
2024/03/29 07:49:05;;;;;;;;;;;22.10;35.70;;;;;;5091312;28;19938;-72
2024/03/29 07:51:31;;;;;;;;;;;22.60;35.70;;;;;;5092540;28;19904;-72
2024/03/29 07:53:57;;;;;;;;;;;22.90;34.00;;;;;;5091169;28;20431;-72
2024/03/29 07:56:24;;;;;;;;;;;23.80;32.60;;;;;;5091286;28;19908;-72
2024/03/29 07:58:51;;;;;;;;;;;24.40;31.50;;;;;;5089830;28;20388;-73
2024/03/29 08:01:23;;;;;;;;;;;24.70;29.60;;;;;;5091121;28;19904;-73
2024/03/29 08:03:53;;;;;;;;;;;24.80;29.80;;;;;;5091160;28;20367;-73
2024/03/29 08:06:19;;;;;;;;;;;25.30;29.50;;;;;;5090863;28;19939;-74
2024/03/29 08:08:45;;;;;;;;;;;25.70;28.90;;;;;;5090733;28;20361;-73
2024/03/29 08:11:11;;;;;;;;;;;26.00;28.20;;;;;;5089634;28;19994;-75
2024/03/29 08:13:38;;;;;;;;;;;26.20;26.30;;;;;;5090801;28;19907;-74
2024/03/29 08:16:03;;;;;;;;;;;26.00;26.50;;;;;;5089661;28;19916;-75
2024/03/29 08:18:29;;;;;;;;;;;25.90;27.20;;;;;;5090955;28;19908;-75
2024/03/29 08:20:55;;;;;;;;;;;25.90;26.00;;;;;;5089342;28;20339;-75
2024/03/29 08:23:23;;;;;;;;;;;25.80;28.00;;;;;;5090394;28;19927;-75
2024/03/29 08:25:51;;;;;;;;;;;25.50;27.50;;;;;;5090688;28;19911;-73
2024/03/29 08:28:17;;;;;;;;;;;25.20;27.90;;;;;;5089398;28;19904;-72
2024/03/29 08:30:42;;;;;;;;;;;25.60;28.30;;;;;;5090677;28;19915;-75
2024/03/29 08:33:08;;;;;;;;;;;25.70;28.00;;;;;;5089192;28;20281;-74
2024/03/29 08:35:34;;;;;;;;;;;25.50;28.60;;;;;;5089136;28;20396;-74
2024/03/29 08:38:00;;;;;;;;;;;25.50;26.80;;;;;;5089096;28;19904;-74
2024/03/29 08:40:28;;;;;;;;;;;25.40;26.20;;;;;;5052500;28;20266;-74
2024/03/29 08:42:54;;;;;;;;;;;24.90;26.10;;;;;;5052326;28;19912;-73
2024/03/29 08:45:20;;;;;;;;;;;24.10;29.20;;;;;;5052572;28;19908;-74
2024/03/29 08:47:46;;;;;;;;;;;24.30;29.60;;;;;;5070155;28;20265;-74
2024/03/29 08:50:12;;;;;;;;;;;24.40;28.80;;;;;;5070197;28;19908;-74
2024/03/29 08:52:38;;;;;;;;;;;24.60;27.60;;;;;;5052073;28;20003;-75
2024/03/29 08:55:04;;;;;;;;;;;24.30;28.50;;;;;;5069845;28;19908;-75
2024/03/29 08:57:30;;;;;;;;;;;24.00;28.70;;;;;;5069382;28;20002;-75
2024/03/29 08:59:56;;;;;;;;;;;23.90;29.20;;;;;;5052061;28;20388;-75
2024/03/29 09:02:21;;;;;;;;;;;24.10;28.70;;;;;;5051895;28;20451;-75
2024/03/29 09:04:47;;;;;;;;;;;23.80;28.50;;;;;;5051793;28;20447;-74
2024/03/29 09:07:12;;;;;;;;;;;23.50;29.10;;;;;;5069904;28;19955;-74
2024/03/29 09:09:41;;;;;;;;;;;23.10;30.60;;;;;;5051851;28;20002;-75
2024/03/29 09:12:07;;;;;;;;;;;23.10;28.80;;;;;;5051760;28;20437;-72
2024/03/29 09:14:33;;;;;;;;;;;22.70;29.10;;;;;;5052060;28;20285;-73
2024/03/29 09:16:58;;;;;;;;;;;22.50;29.20;;;;;;5069918;28;19904;-73
2024/03/29 09:19:24;;;;;;;;;;;22.10;29.70;;;;;;5069761;28;20365;-75
2024/03/29 09:21:50;;;;;;;;;;;21.90;32.60;;;;;;5051808;28;19978;-74
2024/03/29 09:24:17;;;;;;;;;;;21.90;32.80;;;;;;5051784;28;19911;-74
2024/03/29 09:26:45;;;;;;;;;;;22.10;30.80;;;;;;5069808;28;19904;-72
2024/03/29 09:29:13;;;;;;;;;;;22.30;31.60;;;;;;5069838;28;20351;-71
2024/03/29 09:31:38;;;;;;;;;;;22.60;32.20;;;;;;5069693;28;19958;-74
2024/03/29 09:34:04;;;;;;;;;;;22.80;30.60;;;;;;5051594;28;19908;-74
2024/03/29 09:36:29;;;;;;;;;;;23.00;30.10;;;;;;5051679;28;19923;-75
2024/03/29 09:38:55;;;;;;;;;;;23.10;29.50;;;;;;5069453;28;19939;-75
2024/03/29 09:41:21;;;;;;;;;;;23.00;27.90;;;;;;5069432;28;19909;-74
2024/03/29 09:43:47;;;;;;;;;;;22.60;29.40;;;;;;5069494;28;19963;-75
2024/03/29 09:46:13;;;;;;;;;;;22.60;30.60;;;;;;5051438;28;20266;-71
2024/03/29 09:48:39;;;;;;;;;;;22.80;30.70;;;;;;5051557;28;19905;-72
2024/03/29 09:51:05;;;;;;;;;;;22.80;29.30;;;;;;5051566;28;19915;-71
2024/03/29 09:53:33;;;;;;;;;;;22.80;28.90;;;;;;5069340;28;19912;-74
2024/03/29 09:55:59;;;;;;;;;;;22.70;30.00;;;;;;5051284;28;20369;-74
2024/03/29 09:58:24;;;;;;;;;;;22.70;30.50;;;;;;5051358;28;19910;-74
2024/03/29 10:00:50;;;;;;;;;;;23.00;30.80;;;;;;5051347;28;19927;-73
2024/03/29 10:03:19;;;;;;;;;;;23.60;29.40;;;;;;5069231;28;20035;-75
2024/03/29 10:05:46;;;;;;;;;;;23.60;28.70;;;;;;5069269;28;19912;-75
2024/03/29 10:08:12;;;;;;;;;;;23.90;28.40;;;;;;5053629;28;19934;-71
2024/03/29 10:10:37;;;;;;;;;;;24.20;27.90;;;;;;5055154;28;19908;-72
2024/03/29 10:13:03;;;;;;;;;;;24.50;27.40;;;;;;5072959;28;20021;-72
2024/03/29 10:15:32;;;;;;;;;;;24.50;27.20;;;;;;5072996;28;19951;-71
2024/03/29 10:17:57;;;;;;;;;;;24.80;26.70;;;;;;5054765;28;19905;-75
2024/03/29 10:20:26;;;;;;;;;;;25.40;24.30;;;;;;5054764;28;19961;-72
2024/03/29 10:22:53;;;;;;;;;;;25.00;27.00;;;;;;5072591;28;19920;-77
2024/03/29 10:25:19;;;;;;;;;;;24.40;26.70;;;;;;5072597;28;20291;-74
2024/03/29 10:27:45;;;;;;;;;;;24.30;25.90;;;;;;5072746;28;19908;-74
2024/03/29 10:30:11;;;;;;;;;;;24.10;25.90;;;;;;5055010;28;19957;-74
2024/03/29 10:32:38;;;;;;;;;;;23.60;26.70;;;;;;5072560;28;19908;-74
2024/03/29 10:35:03;;;;;;;;;;;22.90;27.30;;;;;;5072569;28;19908;-74
2024/03/29 10:37:32;;;;;;;;;;;22.30;28.30;;;;;;5072867;28;19946;-73
2024/03/29 10:39:58;;;;;;;;;;;21.80;28.70;;;;;;5072282;28;19917;-74
2024/03/29 10:42:25;;;;;;;;;;;21.50;29.10;;;;;;5054421;28;19923;-74
2024/03/29 10:44:51;;;;;;;;;;;21.20;29.80;;;;;;5054442;28;20344;-74
2024/03/29 10:47:22;;;;;;;;;;;21.00;29.80;;;;;;5054443;28;20392;-78
2024/03/29 10:49:50;;;;;;;;;;;20.70;29.60;;;;;;5054309;28;19908;-74
2024/03/29 10:52:20;;;;;;;;;;;20.60;28.90;;;;;;5072210;28;19908;-74
2024/03/29 10:54:47;;;;;;;;;;;20.40;29.20;;;;;;5072122;28;19909;-74
2024/03/29 10:57:17;;;;;;;;;;;20.20;30.20;;;;;;5054168;28;19908;-74
2024/03/29 10:59:52;;;;;;;;;;;20.20;30.20;;;;;;5054090;28;20510;-74
2024/03/29 11:02:27;;;;;;;;;;;20.30;30.00;;;;;;5053914;28;20403;-74
2024/03/29 11:04:53;;;;;;;;;;;20.30;29.70;;;;;;5053892;28;19905;-74
2024/03/29 11:07:22;;;;;;;;;;;20.20;29.90;;;;;;5071896;28;19916;-74
2024/03/29 11:09:50;;;;;;;;;;;20.10;29.40;;;;;;5053894;28;19904;-74
2024/03/29 11:12:16;;;;;;;;;;;20.10;31.00;;;;;;5071875;28;20588;-74
2024/03/29 11:14:42;;;;;;;;;;;20.20;30.40;;;;;;5053839;28;19909;-75
2024/03/29 11:17:09;;;;;;;;;;;20.20;30.20;;;;;;5071906;28;20309;-74
2024/03/29 11:19:35;;;;;;;;;;;20.10;30.60;;;;;;5070777;28;20361;-75
2024/03/29 11:22:01;;;;;;;;;;;20.00;30.60;;;;;;5053491;28;19916;-73
2024/03/29 11:24:28;;;;;;;;;;;20.00;29.80;;;;;;5071650;28;19908;-72
2024/03/29 11:26:53;;;;;;;;;;;19.80;30.00;;;;;;5071584;28;19908;-73
2024/03/29 11:29:20;;;;;;;;;;;19.70;30.90;;;;;;5054054;28;19954;-72
2024/03/29 11:31:47;;;;;;;;;;;19.60;31.20;;;;;;5053518;28;19969;-74
2024/03/29 11:34:12;;;;;;;;;;;19.50;31.80;;;;;;5053378;28;20418;-72
2024/03/29 11:36:39;;;;;;;;;;;19.50;31.80;;;;;;5053670;28;19915;-73
2024/03/29 11:39:05;;;;;;;;;;;19.50;32.30;;;;;;5071169;28;19920;-73
2024/03/29 11:41:32;;;;;;;;;;;19.50;32.70;;;;;;5071209;28;19905;-73
2024/03/29 11:43:57;;;;;;;;;;;19.40;32.40;;;;;;5053323;28;19915;-73
2024/03/29 11:46:24;;;;;;;;;;;19.30;33.60;;;;;;5053048;28;19904;-71
2024/03/29 11:48:51;;;;;;;;;;;19.10;34.10;;;;;;5053151;28;19912;-73
2024/03/29 11:51:20;;;;;;;;;;;19.00;34.30;;;;;;5071064;28;19915;-74
2024/03/29 11:53:46;;;;;;;;;;;18.80;35.40;;;;;;5053095;28;19908;-73
2024/03/29 11:56:13;;;;;;;;;;;18.80;36.20;;;;;;5070934;28;19908;-72
2024/03/29 11:58:41;;;;;;;;;;;18.80;35.80;;;;;;5071038;28;20404;-73
2024/03/29 12:01:10;;;;;;;;;;;18.80;36.30;;;;;;5071092;28;19904;-74
2024/03/29 12:03:37;;;;;;;;;;;18.80;36.00;;;;;;5052911;28;19955;-74
2024/03/29 12:06:04;;;;;;;;;;;18.70;36.30;;;;;;5070933;28;19908;-73
2024/03/29 12:08:33;;;;;;;;;;;18.60;36.40;;;;;;5053138;28;20018;-74
2024/03/29 12:10:59;;;;;;;;;;;18.60;37.20;;;;;;5053132;28;19959;-72
2024/03/29 12:13:25;;;;;;;;;;;18.60;37.20;;;;;;5070627;28;19904;-73
2024/03/29 12:15:51;;;;;;;;;;;18.60;37.80;;;;;;5070806;28;19915;-73
2024/03/29 12:18:19;;;;;;;;;;;18.60;37.10;;;;;;5070691;28;19949;-73
2024/03/29 12:20:49;;;;;;;;;;;18.60;37.10;;;;;;5070881;28;19908;-74
2024/03/29 12:23:15;;;;;;;;;;;18.60;37.30;;;;;;5070306;28;19917;-73
2024/03/29 12:25:41;;;;;;;;;;;18.50;37.10;;;;;;5070300;28;19951;-73
2024/03/29 12:28:07;;;;;;;;;;;18.50;37.30;;;;;;5052543;28;19948;-74
2024/03/29 12:30:33;;;;;;;;;;;18.50;38.10;;;;;;5052427;28;20380;-74
2024/03/29 12:33:28;;;;;;;;;;;18.50;38.80;;;;;;5069824;28;19904;-74
2024/03/29 12:35:55;;;;;;;;;;;18.40;38.80;;;;;;5069593;28;20377;-74
2024/03/29 12:38:21;;;;;;;;;;;18.30;40.40;;;;;;5069981;28;19912;-74
2024/03/29 12:40:48;;;;;;;;;;;18.40;40.30;;;;;;5052136;28;19908;-74
2024/03/29 12:43:14;;;;;;;;;;;18.30;40.10;;;;;;5069888;28;19923;-73
2024/03/29 12:45:40;;;;;;;;;;;18.30;40.60;;;;;;5070060;28;20050;-72
2024/03/29 12:48:10;;;;;;;;;;;18.40;41.30;;;;;;5070036;28;19908;-73
2024/03/29 12:50:35;;;;;;;;;;;18.30;40.90;;;;;;5069696;28;19915;-73
2024/03/29 12:53:02;;;;;;;;;;;18.40;40.80;;;;;;5069758;28;19912;-74
2024/03/29 12:55:30;;;;;;;;;;;18.30;40.70;;;;;;5069631;28;20022;-73
2024/03/29 12:57:56;;;;;;;;;;;18.20;41.60;;;;;;5051868;28;19948;-73
2024/03/29 13:00:22;;;;;;;;;;;18.10;41.80;;;;;;5051655;28;20367;-73
2024/03/29 13:02:47;;;;;;;;;;;18.10;42.50;;;;;;5069671;28;19912;-74
2024/03/29 13:05:13;;;;;;;;;;;18.00;43.30;;;;;;5069928;28;19904;-74
2024/03/29 13:07:39;;;;;;;;;;;17.90;43.90;;;;;;5069791;28;19904;-73
2024/03/29 13:10:14;;;;;;;;;;;17.80;44.50;;;;;;5069475;28;20292;-74
2024/03/29 13:12:42;;;;;;;;;;;17.80;44.90;;;;;;5052138;28;20331;-73
2024/03/29 13:15:15;;;;;;;;;;;17.80;45.20;;;;;;5051556;28;19904;-74
2024/03/29 13:17:40;;;;;;;;;;;17.80;46.00;;;;;;5051639;28;19913;-73
2024/03/29 13:20:06;;;;;;;;;;;17.80;46.10;;;;;;5051724;28;19958;-73
2024/03/29 13:22:32;;;;;;;;;;;17.80;46.50;;;;;;5051203;28;19995;-74
2024/03/29 13:24:57;;;;;;;;;;;17.70;46.50;;;;;;5069702;28;19955;-74
2024/03/29 13:27:23;;;;;;;;;;;17.70;47.90;;;;;;5069611;28;19908;-73
2024/03/29 13:29:49;;;;;;;;;;;17.80;47.70;;;;;;5069689;28;19939;-73
2024/03/29 13:32:14;;;;;;;;;;;17.80;47.80;;;;;;5051390;28;19908;-72
2024/03/29 13:34:40;;;;;;;;;;;17.80;47.90;;;;;;5051365;28;20364;-73
2024/03/29 13:37:06;;;;;;;;;;;17.90;48.30;;;;;;5051618;28;20425;-73
2024/03/29 13:39:32;;;;;;;;;;;17.90;48.60;;;;;;5069587;28;19920;-72
2024/03/29 13:41:57;;;;;;;;;;;17.90;49.10;;;;;;5070072;28;20011;-73
2024/03/29 13:44:23;;;;;;;;;;;17.90;49.30;;;;;;5073619;28;20384;-73
2024/03/29 13:46:48;;;;;;;;;;;17.80;49.60;;;;;;5055558;28;20346;-73
2024/03/29 13:49:14;;;;;;;;;;;17.80;50.00;;;;;;5055532;28;20350;-73
2024/03/29 13:51:39;;;;;;;;;;;17.90;49.70;;;;;;5055604;28;19912;-72
2024/03/29 13:54:05;;;;;;;;;;;17.90;49.80;;;;;;5055178;28;19931;-73
2024/03/29 13:56:30;;;;;;;;;;;18.10;49.50;;;;;;5073308;28;19927;-74
2024/03/29 13:58:56;;;;;;;;;;;18.10;49.20;;;;;;5055188;28;19916;-74
2024/03/29 14:01:21;;;;;;;;;;;18.10;49.50;;;;;;5067295;28;19916;-73
2024/03/29 14:03:47;;;;;;;;;;;18.00;50.00;;;;;;5054751;28;19912;-72
2024/03/29 14:06:13;;;;;;;;;;;18.00;49.40;;;;;;5072951;28;19908;-72
2024/03/29 14:08:38;;;;;;;;;;;18.00;50.10;;;;;;5054906;28;19911;-74
2024/03/29 14:11:04;;;;;;;;;;;17.90;50.40;;;;;;5055096;28;19908;-73
2024/03/29 14:13:29;;;;;;;;;;;17.90;50.90;;;;;;5054826;28;19905;-74
2024/03/29 14:15:59;;;;;;;;;;;17.90;51.10;;;;;;5072669;28;19915;-73
2024/03/29 14:18:24;;;;;;;;;;;17.90;51.90;;;;;;5072752;28;19905;-75
2024/03/29 14:20:51;;;;;;;;;;;17.90;52.00;;;;;;5072820;28;20108;-73
2024/03/29 14:23:19;;;;;;;;;;;18.00;52.50;;;;;;5072516;28;19918;-73